Terminal Aerodrome Forecast
Issued by NWS

Home | Current Version | Previous Version | Text Only | Print | Product List | Glossary On
Versions: 1 2 3 4 5 6 7 8 9 10 11 12 13 14 15 16 17 18 19 20 21
000
FTPQ31 PGUM 251734
TAFGUM
TAF

TAF
PGSN 251734Z 2518/2618 09011KT 6SM -RA SCT017 BKN100
      TEMPO 2518/2522 4SM SHRA SCT014 BKN020
     FM260000 10011KT P6SM VCSH SCT020 BKN130=

USA.gov is the U.S. government's official web portal to all federal, state and local government web resources and services.